Time;durP1;ratioP1;P1;durP2;ratioP2;P2;SDS_P1;SDS_P2;PMS_P1;PMS_P2;Temp;Humidity;BMP_temperature;BMP_pressure;BME280_temperature;BME280_humidity;BME280_pressure;Samples;Min_cycle;Max_cycle;Signal;HPM_P1;HPM_P2
2022/09/20 00:01:36;;;;;;;21.65;4.70;;;10.40;99.90;;;10.33;100.00;100914.44;5007696;28;20677;-82
2022/09/20 00:04:05;;;;;;;22.05;4.63;;;10.40;99.90;;;10.39;100.00;100896.03;5008556;28;20246;-82
2022/09/20 00:06:34;;;;;;;16.25;3.72;;;10.40;99.90;;;10.54;100.00;100853.13;5008958;28;20200;-83
2022/09/20 00:09:04;;;;;;;19.45;4.40;;;10.50;99.90;;;10.72;100.00;100849.88;5009194;28;20204;-82
2022/09/20 00:11:34;;;;;;;20.77;4.55;;;10.60;99.90;;;10.69;100.00;100826.91;5010008;28;20215;-84
2022/09/20 00:14:07;;;;;;;21.67;4.75;;;10.60;99.90;;;10.74;100.00;100803.16;5008888;28;20216;-83
2022/09/20 00:16:39;;;;;;;18.52;4.07;;;10.70;99.90;;;10.79;100.00;100801.47;5009416;28;20654;-82
2022/09/20 00:19:11;;;;;;;20.00;4.32;;;10.70;99.90;;;10.81;100.00;100797.09;5010515;28;20212;-83
2022/09/20 00:21:39;;;;;;;17.73;3.80;;;10.70;99.90;;;10.85;100.00;100801.56;4992012;28;20204;-82
2022/09/20 00:24:09;;;;;;;18.15;4.03;;;10.70;99.90;;;10.85;100.00;100801.56;5009650;28;20242;-82
2022/09/20 00:26:38;;;;;;;16.50;3.75;;;10.80;99.90;;;10.86;100.00;100798.94;4994270;28;20212;-82
2022/09/20 00:29:06;;;;;;;16.10;3.65;;;10.80;99.90;;;10.90;100.00;100794.56;4990856;28;20208;-82
2022/09/20 00:31:38;;;;;;;16.73;3.88;;;10.80;99.90;;;10.88;100.00;100797.19;5009470;28;20216;-83
2022/09/20 00:36:55;;;;;;;19.73;4.68;;;10.90;99.90;;;11.01;100.00;100795.59;5006703;28;20215;-84
2022/09/20 00:39:23;;;;;;;15.98;3.88;;;10.90;99.90;;;11.01;100.00;100790.31;4991804;28;20207;-84
2022/09/20 00:41:51;;;;;;;13.25;3.28;;;10.90;99.90;;;11.00;100.00;100788.53;5009396;28;20208;-82
2022/09/20 00:44:52;;;;;;;13.82;3.42;;;10.90;99.90;;;11.01;100.00;100794.72;5008646;28;20243;-82
2022/09/20 00:47:32;;;;;;;16.17;3.95;;;10.90;99.90;;;11.18;100.00;100799.34;4992083;28;20211;-83
2022/09/20 00:50:41;;;;;;;13.38;3.45;;;10.90;99.90;;;11.16;100.00;100794.91;5008491;28;20212;-82
2022/09/20 00:53:26;;;;;;;11.43;2.95;;;11.00;99.90;;;11.15;100.00;100799.31;5001900;28;20207;-82
2022/09/20 00:55:58;;;;;;;10.68;2.83;;;11.00;99.90;;;11.20;100.00;100799.38;5006722;28;20227;-82
2022/09/20 00:58:30;;;;;;;16.35;4.40;;;11.00;99.90;;;11.16;100.00;100803.72;4974408;28;20214;-82
2022/09/20 01:00:59;;;;;;;15.02;3.80;;;11.00;99.90;;;11.17;100.00;100796.69;4984424;28;20211;-82
2022/09/20 01:03:30;;;;;;;12.23;3.38;;;11.00;99.90;;;11.16;100.00;100808.13;4992063;28;20216;-82
2022/09/20 01:06:05;;;;;;;15.00;4.05;;;11.10;99.90;;;11.19;100.00;100803.78;5006862;28;20239;-82
2022/09/20 01:08:35;;;;;;;14.18;3.70;;;11.10;99.90;;;11.24;100.00;100811.78;4961736;28;20206;-82
2022/09/20 01:11:03;;;;;;;12.80;3.35;;;11.10;99.90;;;11.25;100.00;100802.06;4990105;28;20709;-82
2022/09/20 01:13:31;;;;;;;15.07;3.97;;;11.10;99.90;;;11.33;100.00;100809.22;4975210;28;20208;-82
2022/09/20 01:16:00;;;;;;;12.48;3.40;;;11.10;99.90;;;11.30;100.00;100808.31;5007709;28;20232;-83
2022/09/20 01:18:31;;;;;;;12.93;3.47;;;11.10;99.90;;;11.35;100.00;100803.94;4973167;28;20200;-83
2022/09/20 01:21:00;;;;;;;16.38;4.15;;;11.20;99.90;;;11.31;100.00;100802.13;4977150;28;20220;-82
2022/09/20 01:24:02;;;;;;;12.52;3.47;;;11.20;99.90;;;11.34;100.00;100796.88;5010948;28;20212;-82
2022/09/20 01:26:53;;;;;;;33.17;8.45;;;11.20;99.90;;;11.38;100.00;100796.03;5006589;28;20217;-83
2022/09/20 01:29:47;;;;;;;14.10;3.70;;;11.20;99.90;;;11.33;100.00;100798.63;5012627;28;20215;-82
2022/09/20 01:32:22;;;;;;;13.27;3.70;;;11.20;99.90;;;11.32;100.00;100795.97;4998677;28;20227;-83
2022/09/20 01:34:57;;;;;;;12.48;3.35;;;11.20;99.90;;;11.28;100.00;100789.75;4988780;28;20238;-82
2022/09/20 01:38:23;;;;;;;13.32;3.55;;;11.20;99.90;;;11.30;100.00;100801.25;5002467;28;20199;-83
2022/09/20 01:41:07;;;;;;;11.38;3.15;;;11.20;99.90;;;11.27;100.00;100809.16;5013273;28;20214;-83
2022/09/20 01:44:19;;;;;;;10.25;2.97;;;11.20;99.90;;;11.25;100.00;100817.94;4979695;28;20204;-82
2022/09/20 01:46:58;;;;;;;13.45;3.65;;;11.20;99.90;;;11.29;100.00;100811.81;4966566;28;20216;-82
2022/09/20 01:49:48;;;;;;;11.00;3.15;;;11.20;99.90;;;11.22;100.00;100806.44;5000305;28;20219;-82
2022/09/20 01:52:34;;;;;;;16.10;3.90;;;11.20;99.90;;;11.18;100.00;100806.41;4993871;28;20223;-82
2022/09/20 01:55:35;;;;;;;13.15;3.30;;;11.10;99.90;;;11.17;100.00;100813.44;5005231;28;20232;-82
2022/09/20 01:58:27;;;;;;;14.60;3.63;;;11.10;99.90;;;11.16;100.00;100805.50;4994880;28;20203;-83
2022/09/20 02:01:21;;;;;;;14.75;3.80;;;11.10;99.90;;;11.14;100.00;100805.47;5007041;28;20219;-82
2022/09/20 02:04:31;;;;;;;18.20;4.68;;;11.90;99.90;;;11.12;100.00;100820.44;5003258;28;20196;-82
2022/09/20 02:07:49;;;;;;;11.70;3.17;;;11.20;99.90;;;10.97;100.00;100820.25;4988703;28;20219;-82
2022/09/20 02:10:48;;;;;;;11.75;3.20;;;11.10;99.90;;;10.98;100.00;100824.66;5010915;28;20219;-82
2022/09/20 02:13:38;;;;;;;15.00;4.13;;;11.00;99.90;;;10.95;100.00;100829.91;5011443;28;20208;-82
2022/09/20 02:16:52;;;;;;;11.18;3.17;;;11.00;99.90;;;10.92;100.00;100834.28;5009006;28;20228;-82
2022/09/20 02:19:25;;;;;;;11.70;3.30;;;11.00;99.90;;;10.86;100.00;100843.03;5011545;28;20601;-82
2022/09/20 02:22:10;;;;;;;14.90;4.03;;;11.00;99.90;;;10.78;100.00;100834.97;5013164;28;20208;-83
2022/09/20 02:25:05;;;;;;;11.45;3.28;;;10.90;99.90;;;10.73;100.00;100836.66;4994966;28;20239;-81
2022/09/20 02:27:57;;;;;;;15.13;4.03;;;10.80;99.90;;;10.72;100.00;100828.69;5009243;28;20215;-82
2022/09/20 02:31:00;;;;;;;22.13;5.75;;;10.80;99.90;;;10.64;100.00;100835.63;5006777;28;20219;-81
2022/09/20 02:34:01;;;;;;;16.90;4.10;;;10.70;99.90;;;10.60;100.00;100825.88;5001706;28;20219;-82
2022/09/20 02:37:08;;;;;;;25.35;5.90;;;10.60;99.90;;;10.53;100.00;100832.84;4994653;28;20207;-81
2022/09/20 02:39:57;;;;;;;12.60;3.20;;;10.60;99.90;;;10.57;100.00;100832.91;4976260;28;20203;-79
2022/09/20 02:42:46;;;;;;;15.20;3.97;;;10.60;99.90;;;10.54;100.00;100834.59;4973055;28;20227;-78
2022/09/20 02:45:51;;;;;;;18.38;4.63;;;10.60;99.90;;;10.56;100.00;100838.16;4985857;28;20316;-79
2022/09/20 02:48:28;;;;;;;15.10;4.03;;;10.60;99.90;;;10.60;100.00;100837.34;4985694;28;20210;-79
2022/09/20 02:51:31;;;;;;;19.00;4.95;;;10.50;99.90;;;10.53;100.00;100839.00;5000671;28;20220;-79
2022/09/20 02:54:32;;;;;;;15.75;4.30;;;10.50;99.90;;;10.54;100.00;100845.19;5006000;28;20211;-79
2022/09/20 02:57:29;;;;;;;13.85;3.83;;;10.50;99.90;;;10.51;100.00;100848.66;5008839;28;20215;-80
2022/09/20 03:00:08;;;;;;;10.85;3.05;;;10.50;99.90;;;10.50;100.00;100840.72;4988189;28;20216;-79
2022/09/20 03:02:55;;;;;;;17.98;4.43;;;10.50;99.90;;;10.54;100.00;100855.75;4987565;28;20214;-79
2022/09/20 03:06:09;;;;;;;17.38;4.40;;;10.50;99.90;;;10.58;100.00;100849.66;5003524;28;20247;-80
2022/09/20 03:08:58;;;;;;;16.42;4.30;;;10.50;99.90;;;10.59;100.00;100846.16;4993637;28;20216;-79
2022/09/20 03:12:03;;;;;;;13.10;3.45;;;10.50;99.90;;;10.53;100.00;100857.53;5005982;28;20208;-79
2022/09/20 03:14:54;;;;;;;18.95;4.65;;;10.50;99.90;;;10.57;100.00;100855.81;4974891;28;20223;-79
2022/09/20 03:17:49;;;;;;;16.95;4.45;;;10.50;99.90;;;10.52;100.00;100866.31;4998647;28;20207;-79
2022/09/20 03:20:46;;;;;;;19.05;4.53;;;10.50;99.90;;;10.51;100.00;100864.53;4984447;28;20211;-79
2022/09/20 03:24:06;;;;;;;13.65;3.63;;;10.50;99.90;;;10.55;100.00;100876.94;5012882;28;20207;-79
2022/09/20 03:26:55;;;;;;;12.98;3.45;;;10.40;99.90;;;10.60;100.00;100870.84;5006491;28;20745;-79
2022/09/20 03:29:58;;;;;;;13.50;3.60;;;10.50;99.90;;;10.60;100.00;100877.03;4991518;28;20211;-80
2022/09/20 03:32:32;;;;;;;13.27;3.50;;;10.50;99.90;;;10.64;100.00;100870.91;5005417;28;20223;-79
2022/09/20 03:35:05;;;;;;;12.65;3.40;;;10.50;99.90;;;10.63;100.00;100870.88;5010701;28;20258;-79
2022/09/20 03:37:33;;;;;;;17.27;4.10;;;10.60;99.90;;;10.64;100.00;100876.19;5010153;28;20208;-79
2022/09/20 03:40:32;;;;;;;15.32;3.60;;;10.60;99.90;;;10.65;100.00;100874.44;5010221;28;20211;-79
2022/09/20 03:43:46;;;;;;;16.67;3.97;;;10.60;99.90;;;10.66;100.00;100874.47;4984183;28;20208;-79
2022/09/20 03:46:20;;;;;;;16.08;3.95;;;10.60;99.90;;;10.68;100.00;100887.72;4977292;28;20224;-79
2022/09/20 03:49:19;;;;;;;13.68;3.67;;;10.60;99.90;;;10.67;100.00;100893.88;5004506;28;20215;-78
2022/09/20 03:52:26;;;;;;;16.58;4.05;;;10.60;99.90;;;10.70;100.00;100901.84;5004590;28;20203;-79
2022/09/20 03:55:09;;;;;;;15.05;3.78;;;10.70;99.90;;;10.62;100.00;100893.81;5000289;28;20227;-79
2022/09/20 03:57:59;;;;;;;19.52;4.78;;;10.60;99.90;;;10.58;100.00;100892.88;5007944;28;20207;-78
2022/09/20 04:00:55;;;;;;;15.10;3.85;;;10.60;99.90;;;10.56;100.00;100899.00;4988874;28;20223;-77
2022/09/20 04:03:48;;;;;;;17.70;4.47;;;10.60;99.90;;;10.49;100.00;100900.66;5002350;28;20199;-78
2022/09/20 04:06:42;;;;;;;14.68;3.80;;;10.50;99.90;;;10.42;100.00;100893.47;5004826;28;20290;-79
2022/09/20 04:09:37;;;;;;;12.38;3.28;;;10.50;99.90;;;10.38;100.00;100896.91;4998268;28;20557;-79
2022/09/20 04:12:29;;;;;;;12.57;3.28;;;10.40;99.90;;;10.33;100.00;100895.94;5005315;28;20211;-79
2022/09/20 04:15:25;;;;;;;16.00;4.25;;;10.30;99.90;;;10.36;100.00;100898.63;5008531;28;20228;-78
2022/09/20 04:17:59;;;;;;;11.60;3.10;;;10.30;99.90;;;10.32;100.00;100904.72;5003180;28;20196;-79
2022/09/20 04:20:46;;;;;;;14.18;3.55;;;10.30;99.90;;;10.30;100.00;100902.91;5006402;28;20203;-79
2022/09/20 04:23:35;;;;;;;12.07;3.08;;;10.30;99.90;;;10.19;100.00;100910.63;5003947;28;20218;-81
2022/09/20 04:26:03;;;;;;;13.45;3.70;;;10.30;99.90;;;10.14;100.00;100913.19;4996163;28;20236;-82
2022/09/20 04:28:51;;;;;;;15.38;4.10;;;10.30;99.90;;;10.09;100.00;100898.09;5006264;28;20205;-82
2022/09/20 04:31:41;;;;;;;13.52;3.42;;;10.30;99.90;;;10.05;100.00;100898.91;4991089;28;20219;-82
2022/09/20 04:36:27;;;;;;;14.32;3.85;;;10.10;99.90;;;10.02;100.00;100909.41;4985798;28;20232;-84
2022/09/20 04:37:31;;;;;;;10.23;2.85;;;10.10;99.90;;;9.97;100.00;100903.16;4991720;28;20218;-83
2022/09/20 04:40:17;;;;;;;9.85;2.90;;;10.10;99.90;;;9.97;100.00;100911.09;4989316;28;20216;-81
2022/09/20 04:43:23;;;;;;;14.18;3.92;;;10.00;99.90;;;9.81;100.00;100902.88;4988271;28;20212;-80
2022/09/20 04:45:57;;;;;;;11.75;3.38;;;10.00;99.90;;;9.86;100.00;100901.19;5004017;28;20232;-81
2022/09/20 04:49:11;;;;;;;9.15;2.92;;;9.90;99.90;;;10.01;100.00;100907.63;5004771;28;20196;-81
2022/09/20 04:52:20;;;;;;;11.73;3.45;;;9.90;99.90;;;10.06;100.00;100921.81;4989934;28;20207;-83
2022/09/20 04:54:56;;;;;;;15.38;4.20;;;10.00;99.90;;;10.01;100.00;100931.41;5007472;28;20212;-81
2022/09/20 04:57:52;;;;;;;12.15;3.65;;;10.00;99.90;;;10.00;100.00;100930.53;5007666;28;20206;-81
2022/09/20 05:00:24;;;;;;;8.63;2.50;;;10.00;99.90;;;10.00;100.00;100932.28;5009683;28;20654;-81
2022/09/20 05:03:50;;;;;;;10.15;2.95;;;10.00;99.90;;;10.04;100.00;100952.63;4993509;28;20204;-82
2022/09/20 05:06:35;;;;;;;9.90;3.15;;;10.10;99.90;;;10.08;100.00;100957.09;5003011;28;20235;-82
2022/09/20 05:09:42;;;;;;;9.55;3.00;;;10.10;99.90;;;9.99;100.00;100971.03;5010245;28;20208;-81
2022/09/20 05:12:34;;;;;;;8.38;2.97;;;10.10;99.90;;;9.98;100.00;100971.00;5009019;28;20208;-82
2022/09/20 05:15:43;;;;;;;11.20;3.28;;;10.10;99.90;;;10.00;100.00;100988.66;5006444;28;20215;-82
2022/09/20 05:18:46;;;;;;;7.40;2.83;;;10.10;99.90;;;9.93;100.00;100997.31;5003114;28;20207;-82
2022/09/20 05:21:26;;;;;;;5.95;2.45;;;10.00;99.90;;;9.84;100.00;101012.97;4972487;28;20207;-81
2022/09/20 05:24:33;;;;;;;15.57;4.22;;;9.90;99.90;;;9.84;100.00;101034.13;5008011;28;20203;-82
2022/09/20 05:27:24;;;;;;;12.32;3.33;;;10.00;99.90;;;9.78;100.00;101042.81;4990245;28;20231;-83
2022/09/20 05:30:16;;;;;;;8.00;2.85;;;9.90;99.90;;;9.73;100.00;101035.63;4991205;28;20204;-82
2022/09/20 05:33:24;;;;;;;10.85;3.28;;;9.80;99.90;;;9.88;100.00;101055.34;4980163;28;20212;-82
2022/09/20 05:36:13;;;;;;;11.00;3.30;;;9.90;99.90;;;9.94;100.00;101068.69;5009270;28;20228;-83
2022/09/20 05:38:51;;;;;;;9.77;3.00;;;9.90;99.90;;;9.89;100.00;101073.00;5010640;28;20215;-82
2022/09/20 05:41:47;;;;;;;9.35;3.00;;;10.00;99.90;;;9.92;100.00;101067.78;4992521;28;20210;-82
2022/09/20 05:44:40;;;;;;;8.32;2.90;;;10.00;99.90;;;9.98;100.00;101081.97;5009048;28;20236;-83
2022/09/20 05:47:34;;;;;;;9.10;3.13;;;10.00;99.90;;;9.99;100.00;101094.31;4988731;28;20228;-82
2022/09/20 05:50:14;;;;;;;8.25;2.85;;;10.00;99.90;;;10.05;100.00;101098.00;4976079;28;20675;-82
2022/09/20 05:53:41;;;;;;;8.50;2.85;;;10.10;99.90;;;10.10;100.00;101101.63;4991366;28;20211;-82
2022/09/20 05:56:46;;;;;;;11.82;3.35;;;10.10;99.90;;;10.21;100.00;101120.38;4929998;29;20248;-82
2022/09/20 06:00:02;;;;;;;9.23;2.90;;;10.20;99.90;;;10.23;100.00;101116.03;5009665;28;20215;-82
2022/09/20 06:03:09;;;;;;;10.77;3.50;;;10.20;99.90;;;10.27;100.00;101117.88;4999564;28;20204;-82
2022/09/20 06:05:57;;;;;;;8.20;3.10;;;10.30;99.90;;;10.30;100.00;101125.88;5008473;28;20223;-82
2022/09/20 06:09:16;;;;;;;8.45;3.38;;;10.30;99.90;;;10.36;100.00;101127.75;4994417;28;20236;-82
2022/09/20 06:12:28;;;;;;;8.27;2.90;;;10.30;99.90;;;10.40;100.00;101132.25;4990232;28;20205;-82
2022/09/20 06:15:32;;;;;;;6.25;2.42;;;10.50;99.90;;;10.49;100.00;101122.78;4980838;28;20228;-84
2022/09/20 06:18:35;;;;;;;7.13;2.70;;;10.50;99.90;;;10.57;100.00;101115.88;4988292;28;20207;-82
2022/09/20 06:21:08;;;;;;;6.20;2.53;;;10.60;99.90;;;10.60;100.00;101099.19;5001818;28;20216;-83
2022/09/20 06:23:36;;;;;;;8.35;3.00;;;10.80;99.90;;;10.69;100.00;101082.59;5010428;28;20211;-82
2022/09/20 06:26:23;;;;;;;8.65;3.10;;;10.80;99.90;;;10.81;100.00;101062.56;5008691;28;20223;-82
2022/09/20 06:28:57;;;;;;;6.25;2.55;;;10.80;99.90;;;10.90;100.00;101072.41;4986340;28;20681;-82
2022/09/20 06:31:26;;;;;;;6.95;2.72;;;10.90;99.90;;;10.90;100.00;101038.91;4993484;28;20223;-82
2022/09/20 06:34:03;;;;;;;9.75;3.53;;;11.00;99.90;;;10.97;100.00;101044.31;5011547;28;20204;-83
2022/09/20 06:42:41;;;;;;;7.15;2.78;;;11.00;99.90;;;11.03;100.00;101087.63;4984945;28;20223;-83
2022/09/20 06:45:09;;;;;;;6.78;2.53;;;11.00;99.90;;;11.13;100.00;101101.94;5011165;28;20232;-83
2022/09/20 06:47:37;;;;;;;7.95;3.08;;;11.10;99.90;;;11.19;100.00;101113.50;4991664;28;20221;-83
2022/09/20 06:50:06;;;;;;;7.07;2.67;;;11.10;99.90;;;11.24;100.00;101110.94;5012591;28;20212;-83
2022/09/20 06:52:34;;;;;;;7.68;3.00;;;11.20;99.90;;;11.25;100.00;101111.84;5012792;28;20200;-82
2022/09/20 06:55:06;;;;;;;5.80;2.35;;;11.60;99.90;;;11.31;100.00;101112.81;4990679;28;20224;-82
2022/09/20 06:57:37;;;;;;;7.82;3.10;;;11.20;99.90;;;11.38;100.00;101111.16;4994167;28;20212;-82
2022/09/20 07:00:09;;;;;;;7.35;2.83;;;11.30;99.90;;;11.50;100.00;101124.63;4993249;28;20219;-82
2022/09/20 07:02:37;;;;;;;7.90;2.95;;;11.40;99.90;;;11.53;100.00;101124.66;5009726;28;20588;-85
2022/09/20 07:05:06;;;;;;;8.00;3.03;;;11.50;99.90;;;11.59;100.00;101130.06;4991388;28;20232;-87
2022/09/20 07:07:34;;;;;;;7.50;2.75;;;11.50;99.90;;;11.60;100.00;101128.31;5011608;28;20242;-85
2022/09/20 07:10:02;;;;;;;7.38;2.75;;;11.50;99.90;;;11.66;100.00;101120.44;5011421;28;20219;-82
2022/09/20 07:12:32;;;;;;;6.05;2.33;;;11.70;99.90;;;11.69;100.00;101109.91;5007354;28;20204;-82
2022/09/20 07:15:00;;;;;;;7.63;2.83;;;11.70;99.90;;;11.72;100.00;101097.63;5007516;28;20239;-83
2022/09/20 07:17:28;;;;;;;7.07;2.50;;;11.70;99.90;;;11.81;100.00;101094.25;5007878;28;20200;-82
2022/09/20 07:19:56;;;;;;;7.55;2.70;;;11.80;99.90;;;11.82;100.00;101088.97;5010863;28;20211;-82
2022/09/20 07:22:24;;;;;;;8.05;3.03;;;11.90;99.90;;;11.93;100.00;101091.78;4995427;28;20208;-82
2022/09/20 07:24:52;;;;;;;13.88;3.97;;;12.00;99.90;;;11.95;100.00;101095.34;5011953;28;20216;-82
2022/09/20 07:27:20;;;;;;;9.02;2.92;;;12.10;99.90;;;11.98;100.00;101100.69;5007930;28;20228;-82
2022/09/20 07:29:48;;;;;;;8.68;2.95;;;12.10;99.90;;;12.11;100.00;101110.59;5008508;28;20211;-82
2022/09/20 07:32:16;;;;;;;8.25;2.83;;;12.10;99.90;;;12.25;100.00;101118.72;5014009;28;20223;-82
2022/09/20 07:34:45;;;;;;;8.77;3.00;;;12.20;99.90;;;12.24;100.00;101116.03;4995962;28;20227;-83
2022/09/20 07:37:13;;;;;;;7.25;2.60;;;12.30;99.90;;;12.32;100.00;101123.22;5008740;28;20230;-81
2022/09/20 07:39:40;;;;;;;8.45;3.22;;;12.30;99.90;;;12.50;100.00;101157.94;5008209;28;20209;-82
2022/09/20 07:42:08;;;;;;;7.32;2.78;;;12.40;99.90;;;12.45;100.00;101162.31;5006144;28;20223;-83
2022/09/20 07:44:39;;;;;;;7.15;2.95;;;12.20;99.90;;;12.27;100.00;101145.25;5004776;28;20224;-82
2022/09/20 07:47:13;;;;;;;7.70;2.67;;;12.40;99.90;;;12.55;100.00;101167.72;4989671;28;20204;-82
2022/09/20 07:49:41;;;;;;;6.20;2.50;;;12.50;99.90;;;12.60;100.00;101143.03;5008492;28;20207;-82
2022/09/20 07:52:10;;;;;;;5.80;2.35;;;12.50;99.90;;;12.76;100.00;101112.25;4988833;28;20216;-82
2022/09/20 07:54:38;;;;;;;7.07;2.72;;;12.60;99.90;;;12.75;100.00;101091.88;4976236;28;20251;-82
2022/09/20 07:57:07;;;;;;;7.20;2.83;;;12.70;99.90;;;12.75;100.00;101078.63;4992799;28;20693;-82
2022/09/20 07:59:35;;;;;;;5.80;2.50;;;12.70;99.90;;;12.81;100.00;101068.06;5012285;28;20208;-82
2022/09/20 08:02:03;;;;;;;7.78;3.00;;;12.70;99.90;;;12.99;100.00;101077.97;5014591;28;20207;-82
2022/09/20 08:04:32;;;;;;;5.68;2.22;;;12.80;99.90;;;13.26;100.00;101080.94;5012619;28;20228;-82
2022/09/20 08:07:00;;;;;;;5.97;2.50;;;13.00;99.90;;;13.37;100.00;101076.59;5012481;28;20208;-82
2022/09/20 08:09:29;;;;;;;6.60;2.50;;;13.10;99.90;;;13.42;100.00;101045.66;5011898;28;20224;-82
2022/09/20 08:11:57;;;;;;;7.38;2.83;;;;;;;13.54;100.00;101043.94;5013808;28;20215;-83
2022/09/20 08:14:25;;;;;;;9.73;3.50;;;13.30;99.90;;;13.60;100.00;101044.00;5008826;28;20216;-82
2022/09/20 08:16:58;;;;;;;7.00;2.70;;;;;;;13.71;100.00;101027.22;5006232;28;20240;-82
2022/09/20 08:19:26;;;;;;;6.65;2.60;;;13.50;99.90;;;13.72;100.00;101031.66;5011666;28;20219;-82
2022/09/20 08:21:54;;;;;;;6.75;2.67;;;13.60;99.90;;;13.73;100.00;101020.16;4993345;28;20212;-82
2022/09/20 08:24:25;;;;;;;6.57;2.75;;;13.60;99.90;;;13.76;100.00;101022.81;5014761;28;20223;-82
2022/09/20 08:26:52;;;;;;;8.32;3.20;;;13.70;99.90;;;13.70;100.00;101035.19;5013344;28;20208;-82
2022/09/20 08:29:20;;;;;;;6.57;2.63;;;13.70;99.90;;;13.63;100.00;101014.78;5010656;28;20242;-83
2022/09/20 08:31:48;;;;;;;7.32;2.85;;;13.60;99.90;;;13.67;100.00;101008.59;5007640;28;20212;-82
2022/09/20 08:34:17;;;;;;;8.55;2.95;;;13.60;99.90;;;14.02;100.00;101072.59;5008132;28;20238;-82
2022/09/20 08:36:46;;;;;;;5.65;2.20;;;13.80;99.90;;;14.05;100.00;101067.28;4996655;28;20200;-82
2022/09/20 08:39:14;;;;;;;5.82;2.20;;;13.90;99.90;;;14.01;100.00;101025.59;5015265;28;20212;-83
2022/09/20 08:42:18;;;;;;;10.23;3.33;;;14.00;99.90;;;13.95;100.00;100985.69;4993116;28;20215;-83
2022/09/20 08:44:52;;;;;;;8.07;2.72;;;14.00;99.90;;;14.13;100.00;100993.72;4990466;28;20242;-83
2022/09/20 08:47:34;;;;;;;6.57;2.50;;;14.00;99.90;;;14.31;100.00;101009.78;4993516;28;20208;-82
2022/09/20 08:50:06;;;;;;;8.20;2.88;;;14.20;99.90;;;14.57;100.00;101075.53;4992522;28;20212;-82
2022/09/20 08:52:39;;;;;;;10.23;3.55;;;14.30;99.90;;;14.61;100.00;101066.69;5012076;28;20207;-82
2022/09/20 08:55:24;;;;;;;8.73;2.97;;;14.40;99.90;;;14.76;100.00;101065.81;5011317;28;20243;-83
2022/09/20 08:57:55;;;;;;;7.65;2.50;;;14.60;99.90;;;14.82;100.00;101077.38;4994615;28;20704;-82
2022/09/20 09:00:29;;;;;;;7.18;2.45;;;14.70;99.90;;;15.02;100.00;101083.63;4993778;28;20223;-83
2022/09/20 09:03:04;;;;;;;7.05;2.55;;;15.00;99.90;;;15.04;100.00;101071.19;4986552;28;20214;-83
2022/09/20 09:05:52;;;;;;;5.93;2.35;;;15.00;99.90;;;15.10;100.00;101056.97;5010942;28;20238;-82
2022/09/20 09:08:26;;;;;;;8.63;2.92;;;15.10;99.90;;;15.14;100.00;101039.22;4986912;28;20224;-81
2022/09/20 09:10:58;;;;;;;7.70;2.70;;;15.20;99.90;;;15.26;100.00;101031.22;5003303;28;20215;-81
2022/09/20 09:13:38;;;;;;;10.77;3.70;;;15.20;99.90;;;14.95;100.00;100969.97;4989042;28;20204;-81
2022/09/20 09:16:15;;;;;;;7.20;2.70;;;15.10;99.90;;;15.17;98.85;100960.19;4985504;28;20231;-82
2022/09/20 09:18:52;;;;;;;7.65;2.78;;;15.20;99.90;;;15.17;97.06;100949.53;5008823;28;20204;-82
2022/09/20 09:21:24;;;;;;;8.52;3.03;;;15.20;99.90;;;15.13;94.22;100894.47;5004822;28;20211;-82
2022/09/20 09:24:05;;;;;;;12.82;4.22;;;15.20;99.90;;;15.15;94.39;100891.81;4987005;28;20196;-82
2022/09/20 09:26:40;;;;;;;7.82;2.80;;;15.20;99.90;;;15.16;96.83;100920.22;4995658;28;20207;-83
2022/09/20 09:29:19;;;;;;;7.28;2.70;;;15.20;99.90;;;15.35;98.96;100969.91;5003340;28;20231;-82
2022/09/20 09:31:53;;;;;;;7.47;2.70;;;15.30;99.90;;;14.98;100.00;100930.00;5004304;28;20230;-83
2022/09/20 09:34:27;;;;;;;9.70;3.30;;;15.20;99.90;;;14.87;100.00;100931.81;5008951;28;20232;-84
2022/09/20 09:36:57;;;;;;;7.57;2.70;;;15.10;99.90;;;14.59;97.96;100874.13;5008377;28;20204;-84
2022/09/20 09:39:28;;;;;;;9.90;3.15;;;14.90;99.90;;;14.84;98.97;100910.50;4988479;28;20216;-84
2022/09/20 09:42:01;;;;;;;9.80;3.10;;;14.90;99.90;;;14.67;100.00;100917.59;5009264;28;20223;-85
2022/09/20 09:44:34;;;;;;;9.18;2.88;;;14.80;99.90;;;14.61;100.00;100904.31;5000032;28;20231;-83
2022/09/20 09:47:02;;;;;;;10.23;3.20;;;14.80;99.90;;;14.64;100.00;100922.94;5009098;28;20208;-83
2022/09/20 09:49:34;;;;;;;10.63;3.60;;;14.80;99.90;;;14.55;99.98;100891.00;5007413;28;20614;-84
2022/09/20 09:52:13;;;;;;;8.30;2.92;;;14.70;99.90;;;15.16;98.71;100953.06;5006119;28;20212;-84
2022/09/20 09:54:47;;;;;;;8.07;2.78;;;14.90;99.90;;;15.71;97.00;100969.00;4992597;28;20228;-83
2022/09/20 09:57:52;;;;;;;8.45;2.88;;;15.20;99.90;;;16.13;92.12;100919.00;5007283;28;20219;-83
2022/09/20 10:00:23;;;;;;;8.48;2.90;;;15.80;99.90;;;16.13;90.79;100871.88;5010392;28;20210;-81
2022/09/20 10:03:19;;;;;;;7.85;2.80;;;15.90;99.90;;;15.98;88.49;100800.81;4991328;28;20213;-83
2022/09/20 10:05:53;;;;;;;11.02;3.78;;;16.10;99.90;;;15.92;87.78;100775.97;5002654;28;20243;-82
2022/09/20 10:08:43;;;;;;;9.25;3.10;;;16.00;99.90;;;15.88;88.24;100779.56;4996972;28;20218;-81
2022/09/20 10:11:48;;;;;;;6.10;2.20;;;15.50;99.90;;;15.99;85.16;100743.03;5007011;28;20219;-83
2022/09/20 10:15:12;;;;;;;5.40;1.90;;;16.10;99.90;;;16.34;85.79;100766.72;4986916;28;20568;-81
2022/09/20 10:17:56;;;;;;;6.80;2.30;;;16.40;99.90;;;16.12;84.20;100710.00;4980289;28;20222;-81
2022/09/20 10:20:40;;;;;;;7.57;2.75;;;16.40;99.90;;;15.73;87.42;100691.69;4995021;28;20223;-82
2022/09/20 10:23:19;;;;;;;8.02;2.88;;;16.20;99.90;;;15.79;86.90;100719.19;5006798;28;20211;-82
2022/09/20 10:26:27;;;;;;;4.20;1.67;;;16.20;99.90;;;15.76;89.83;100742.31;5011101;28;20725;-82
2022/09/20 10:29:07;;;;;;;5.95;2.20;;;16.50;99.90;;;15.40;94.24;100762.91;4993806;28;20234;-82
2022/09/20 10:32:06;;;;;;;4.60;1.90;;;16.40;99.90;;;14.93;100.00;100809.28;5011895;28;20207;-82
2022/09/20 10:35:02;;;;;;;5.85;2.25;;;15.90;99.90;;;14.98;100.00;100833.25;4991093;28;20231;-82
2022/09/20 10:38:20;;;;;;;5.97;2.22;;;15.80;99.90;;;15.27;100.00;100859.78;5017113;28;20657;-82
2022/09/20 10:44:27;;;;;;;8.82;3.22;;;16.30;99.90;;;16.39;91.88;100841.44;5008406;28;20196;-86
2022/09/20 10:47:18;;;;;;;5.95;2.22;;;16.40;99.90;;;16.61;86.45;100753.09;4992856;28;20208;-81
2022/09/20 10:50:16;;;;;;;6.90;2.65;;;16.70;99.90;;;17.07;86.22;100781.16;5010598;28;20230;-81
2022/09/20 10:53:34;;;;;;;5.40;2.22;;;17.00;99.90;;;17.63;83.09;100759.00;5011626;28;20208;-81
2022/09/20 10:56:30;;;;;;;5.47;2.22;;;17.60;99.90;;;16.90;83.15;100650.41;4980939;28;20582;-81
2022/09/20 10:59:20;;;;;;;5.82;2.47;;;17.60;99.90;;;16.34;82.43;100574.56;4991523;28;20212;-82
2022/09/20 11:02:13;;;;;;;4.75;2.08;;;17.70;99.90;;;16.31;82.93;100601.28;5009778;28;20217;-81
2022/09/20 11:05:23;;;;;;;5.78;2.22;;;17.90;99.90;;;15.85;86.16;100600.91;4977301;28;20248;-81
2022/09/20 11:08:13;;;;;;;5.22;2.05;;;17.40;99.90;;;15.56;92.58;100665.97;5005814;28;20199;-82
2022/09/20 11:10:54;;;;;;;5.50;2.15;;;16.80;99.90;;;15.21;100.00;100764.78;4991978;28;20239;-82
2022/09/20 11:13:59;;;;;;;5.18;1.98;;;16.50;99.90;;;15.10;100.00;100881.16;4993263;28;20211;-82
2022/09/20 11:16:35;;;;;;;4.70;1.90;;;16.50;99.90;;;15.42;100.00;100922.81;5007065;28;20207;-83
2022/09/20 11:19:18;;;;;;;4.63;1.98;;;16.80;99.90;;;15.05;100.00;100878.50;4989217;28;20207;-84
2022/09/20 11:22:13;;;;;;;3.85;1.63;;;16.40;99.90;;;15.27;100.00;100870.47;4989215;28;20207;-82
2022/09/20 11:25:21;;;;;;;5.03;2.03;;;16.30;99.90;;;15.28;100.00;100832.25;4990142;28;20243;-82
2022/09/20 11:28:00;;;;;;;4.30;1.70;;;16.10;99.90;;;14.90;97.76;100729.41;4966818;28;20217;-82